Time;durP1;ratioP1;P1;durP2;ratioP2;P2;SDS_P1;SDS_P2;PMS_P1;PMS_P2;Temp;Humidity;BMP_temperature;BMP_pressure;BME280_temperature;BME280_humidity;BME280_pressure;Samples;Min_cycle;Max_cycle;Signal;HPM_P1;HPM_P2
2021/07/06 00:00:27;;;;;;;;;;;16.60;99.90;;;;;;5072723;28;20471;-82
2021/07/06 00:02:52;;;;;;;;;;;16.60;99.90;;;;;;5071947;28;19924;-81
2021/07/06 00:05:18;;;;;;;;;;;16.60;99.90;;;;;;5072298;28;19912;-82
2021/07/06 00:07:46;;;;;;;;;;;16.60;99.90;;;;;;5072274;28;19978;-82
2021/07/06 00:10:12;;;;;;;;;;;16.60;99.90;;;;;;5072077;28;19908;-82
2021/07/06 00:12:38;;;;;;;;;;;16.60;99.90;;;;;;5071964;28;19912;-82
2021/07/06 00:15:05;;;;;;;;;;;16.60;99.90;;;;;;5072054;28;19920;-82
2021/07/06 00:17:30;;;;;;;;;;;16.70;99.90;;;;;;5072169;28;19913;-82
2021/07/06 00:19:55;;;;;;;;;;;16.70;99.90;;;;;;5072016;28;19915;-82
2021/07/06 00:22:21;;;;;;;;;;;16.70;99.90;;;;;;5071500;28;20010;-82
2021/07/06 00:24:47;;;;;;;;;;;16.80;99.90;;;;;;5073129;28;19913;-83
2021/07/06 00:27:12;;;;;;;;;;;16.70;99.90;;;;;;5071658;28;19913;-81
2021/07/06 00:29:38;;;;;;;;;;;16.70;99.90;;;;;;5071698;28;19916;-82
2021/07/06 00:32:04;;;;;;;;;;;16.70;99.90;;;;;;5071473;28;19913;-82
2021/07/06 00:34:29;;;;;;;;;;;16.70;99.90;;;;;;5073080;28;19992;-82
2021/07/06 00:36:54;;;;;;;;;;;16.60;99.90;;;;;;5073198;28;19908;-82
2021/07/06 00:39:20;;;;;;;;;;;16.50;99.90;;;;;;5071854;28;19909;-82
2021/07/06 00:41:45;;;;;;;;;;;16.50;99.90;;;;;;5071490;28;20318;-83
2021/07/06 00:44:12;;;;;;;;;;;16.50;99.90;;;;;;5071434;28;19908;-81
2021/07/06 00:46:37;;;;;;;;;;;16.50;99.90;;;;;;5071564;28;19920;-82
2021/07/06 00:49:03;;;;;;;;;;;16.40;99.90;;;;;;5071642;28;20363;-82
2021/07/06 00:51:31;;;;;;;;;;;16.40;99.90;;;;;;5071607;28;20001;-82
2021/07/06 00:53:57;;;;;;;;;;;16.40;99.90;;;;;;5071362;28;19932;-82
2021/07/06 00:56:22;;;;;;;;;;;16.40;99.90;;;;;;5071430;28;20351;-82
2021/07/06 00:58:48;;;;;;;;;;;16.40;99.90;;;;;;5071585;28;19999;-82
2021/07/06 01:01:14;;;;;;;;;;;16.40;99.90;;;;;;5071714;28;19947;-82
2021/07/06 01:03:39;;;;;;;;;;;16.30;99.90;;;;;;5071394;28;20290;-82
2021/07/06 01:06:05;;;;;;;;;;;16.40;99.90;;;;;;5071406;28;19909;-82
2021/07/06 01:08:30;;;;;;;;;;;16.40;99.90;;;;;;5071427;28;19908;-82
2021/07/06 01:10:57;;;;;;;;;;;16.50;99.90;;;;;;5071114;28;20375;-82
2021/07/06 01:13:22;;;;;;;;;;;16.60;99.90;;;;;;5071309;28;19908;-82
2021/07/06 01:15:48;;;;;;;;;;;16.60;99.90;;;;;;5071240;28;19909;-82
2021/07/06 01:18:14;;;;;;;;;;;16.60;99.90;;;;;;5072585;28;19913;-82
2021/07/06 01:20:53;;;;;;;;;;;16.60;99.90;;;;;;5071341;28;20015;-82
2021/07/06 01:23:23;;;;;;;;;;;16.60;99.90;;;;;;5071305;28;20371;-82
2021/07/06 01:25:50;;;;;;;;;;;16.60;99.90;;;;;;5072606;28;19908;-82
2021/07/06 01:28:16;;;;;;;;;;;16.70;99.90;;;;;;5071298;28;19963;-82
2021/07/06 01:30:41;;;;;;;;;;;16.80;99.90;;;;;;5072594;28;19916;-82
2021/07/06 01:33:08;;;;;;;;;;;16.80;99.90;;;;;;5072532;28;19912;-82
2021/07/06 01:35:33;;;;;;;;;;;16.80;99.90;;;;;;5072499;28;19908;-82
2021/07/06 01:38:00;;;;;;;;;;;16.70;99.90;;;;;;5071158;28;20394;-82
2021/07/06 01:40:26;;;;;;;;;;;16.70;99.90;;;;;;5070761;28;19909;-82
2021/07/06 01:42:52;;;;;;;;;;;16.70;99.90;;;;;;5070805;28;20368;-82
2021/07/06 01:45:20;;;;;;;;;;;16.70;99.90;;;;;;5070950;28;19908;-82
2021/07/06 01:47:47;;;;;;;;;;;16.70;99.90;;;;;;5070957;28;20363;-81
2021/07/06 01:50:16;;;;;;;;;;;16.70;99.90;;;;;;5070856;28;19916;-82
2021/07/06 01:52:43;;;;;;;;;;;16.70;99.90;;;;;;5070993;28;19908;-82
2021/07/06 01:55:10;;;;;;;;;;;16.70;99.90;;;;;;5072113;28;19912;-82
2021/07/06 01:57:35;;;;;;;;;;;16.70;99.90;;;;;;5071473;28;19980;-82
2021/07/06 02:00:03;;;;;;;;;;;16.80;99.90;;;;;;5071003;28;19966;-82
2021/07/06 02:02:29;;;;;;;;;;;16.70;99.90;;;;;;5070937;28;19909;-82
2021/07/06 02:04:54;;;;;;;;;;;16.70;99.90;;;;;;5070988;28;19920;-82
2021/07/06 02:07:19;;;;;;;;;;;16.70;99.90;;;;;;5073651;28;20053;-82
2021/07/06 02:09:45;;;;;;;;;;;16.60;99.90;;;;;;5074556;28;19916;-82
2021/07/06 02:12:10;;;;;;;;;;;16.60;99.90;;;;;;5074212;28;19916;-82
2021/07/06 02:14:36;;;;;;;;;;;16.60;99.90;;;;;;5074301;28;19909;-83
2021/07/06 02:17:02;;;;;;;;;;;16.50;99.90;;;;;;5074309;28;19909;-82
2021/07/06 02:19:27;;;;;;;;;;;16.60;99.90;;;;;;5074326;28;19909;-82
2021/07/06 02:21:52;;;;;;;;;;;16.50;99.90;;;;;;5073681;28;19973;-82
2021/07/06 02:24:18;;;;;;;;;;;16.50;99.90;;;;;;5074024;28;19909;-82
2021/07/06 02:26:43;;;;;;;;;;;16.50;99.90;;;;;;5073823;28;19946;-82
2021/07/06 02:29:09;;;;;;;;;;;16.50;99.90;;;;;;5074209;28;20287;-82
2021/07/06 02:31:34;;;;;;;;;;;16.50;99.90;;;;;;5074076;28;20017;-82
2021/07/06 02:34:00;;;;;;;;;;;16.50;99.90;;;;;;5074190;28;19908;-82
2021/07/06 02:36:25;;;;;;;;;;;16.50;99.90;;;;;;5074146;28;19908;-82
2021/07/06 02:38:51;;;;;;;;;;;16.50;99.90;;;;;;5075225;28;20263;-82
2021/07/06 02:41:16;;;;;;;;;;;16.60;99.90;;;;;;5080508;28;19946;-82
2021/07/06 02:43:42;;;;;;;;;;;16.70;99.90;;;;;;5079121;28;20281;-82
2021/07/06 02:46:07;;;;;;;;;;;16.80;99.90;;;;;;5075416;28;19915;-82
2021/07/06 02:48:34;;;;;;;;;;;16.80;99.90;;;;;;5074319;28;20415;-82
2021/07/06 02:51:00;;;;;;;;;;;16.80;99.90;;;;;;5074681;28;20287;-82
2021/07/06 02:53:25;;;;;;;;;;;16.80;99.90;;;;;;5074005;28;19915;-82
2021/07/06 02:55:51;;;;;;;;;;;16.80;99.90;;;;;;5073850;28;20378;-82
2021/07/06 02:58:16;;;;;;;;;;;16.80;99.90;;;;;;5073863;28;19909;-82
2021/07/06 03:00:42;;;;;;;;;;;16.70;99.90;;;;;;5073826;28;20283;-82
2021/07/06 03:03:08;;;;;;;;;;;16.70;99.90;;;;;;5075298;28;19924;-81
2021/07/06 03:05:34;;;;;;;;;;;16.70;99.90;;;;;;5073723;28;19954;-82
2021/07/06 03:08:00;;;;;;;;;;;16.70;99.90;;;;;;5073628;28;20352;-81
2021/07/06 03:10:27;;;;;;;;;;;16.80;99.90;;;;;;5073558;28;19931;-82
2021/07/06 03:12:52;;;;;;;;;;;16.70;99.90;;;;;;5073870;28;19908;-81
2021/07/06 03:15:19;;;;;;;;;;;16.80;99.90;;;;;;5074884;28;19915;-82
2021/07/06 03:17:45;;;;;;;;;;;16.70;99.90;;;;;;5074600;28;19957;-82
2021/07/06 03:20:11;;;;;;;;;;;16.70;99.90;;;;;;5073895;28;19908;-81
2021/07/06 03:22:37;;;;;;;;;;;16.80;99.90;;;;;;5074728;28;19909;-81
2021/07/06 03:25:04;;;;;;;;;;;16.80;99.90;;;;;;5073183;28;19908;-81
2021/07/06 03:27:29;;;;;;;;;;;16.70;99.90;;;;;;5073568;28;19963;-81
2021/07/06 03:29:55;;;;;;;;;;;16.70;99.90;;;;;;5073536;28;19958;-82
2021/07/06 03:32:20;;;;;;;;;;;16.70;99.90;;;;;;5073723;28;19916;-82
2021/07/06 03:34:46;;;;;;;;;;;16.80;99.90;;;;;;5074536;28;20024;-82
2021/07/06 03:37:11;;;;;;;;;;;16.80;99.90;;;;;;5073159;28;19962;-82
2021/07/06 03:39:37;;;;;;;;;;;16.90;99.90;;;;;;5074479;28;19930;-82
2021/07/06 03:42:04;;;;;;;;;;;16.90;99.90;;;;;;5072955;28;19908;-81
2021/07/06 03:44:29;;;;;;;;;;;16.90;99.90;;;;;;5072710;28;19909;-81
2021/07/06 03:46:55;;;;;;;;;;;16.90;99.90;;;;;;5072919;28;19939;-82
2021/07/06 03:49:20;;;;;;;;;;;16.90;99.90;;;;;;5073251;28;19909;-82
2021/07/06 03:51:46;;;;;;;;;;;16.90;99.90;;;;;;5073266;28;19934;-81
2021/07/06 03:54:11;;;;;;;;;;;17.10;99.90;;;;;;5073914;28;19909;-82
2021/07/06 03:56:36;;;;;;;;;;;17.10;99.90;;;;;;5072642;28;19909;-81
2021/07/06 03:59:02;;;;;;;;;;;17.00;99.90;;;;;;5072346;28;19931;-81
2021/07/06 04:01:27;;;;;;;;;;;16.90;99.90;;;;;;5072208;28;20003;-82
2021/07/06 04:03:53;;;;;;;;;;;16.90;99.90;;;;;;5072138;28;20283;-83
2021/07/06 04:06:18;;;;;;;;;;;16.90;99.90;;;;;;5072709;28;20360;-82
2021/07/06 04:08:44;;;;;;;;;;;17.00;99.90;;;;;;5073770;28;19999;-82
2021/07/06 04:11:09;;;;;;;;;;;17.10;99.90;;;;;;5072592;28;20341;-81
2021/07/06 04:13:35;;;;;;;;;;;17.20;99.90;;;;;;5072368;28;20335;-82
2021/07/06 04:16:00;;;;;;;;;;;17.20;99.90;;;;;;5072445;28;19915;-81
2021/07/06 04:18:26;;;;;;;;;;;17.30;99.90;;;;;;5072550;28;19912;-82
2021/07/06 04:20:51;;;;;;;;;;;17.30;99.90;;;;;;5072215;28;19915;-81
2021/07/06 04:23:17;;;;;;;;;;;17.30;99.90;;;;;;5072015;28;19908;-81
2021/07/06 04:25:42;;;;;;;;;;;17.30;99.90;;;;;;5072420;28;20278;-82
2021/07/06 04:28:08;;;;;;;;;;;17.30;99.90;;;;;;5072080;28;19912;-82
2021/07/06 04:30:33;;;;;;;;;;;17.30;99.90;;;;;;5071187;28;19913;-82
2021/07/06 04:32:59;;;;;;;;;;;17.40;99.90;;;;;;5071486;28;19908;-81
2021/07/06 04:35:24;;;;;;;;;;;17.40;99.90;;;;;;5071742;28;19916;-82
2021/07/06 04:37:50;;;;;;;;;;;17.40;99.90;;;;;;5071471;28;20356;-82
2021/07/06 04:40:16;;;;;;;;;;;17.40;99.90;;;;;;5071720;28;20095;-82
2021/07/06 04:42:41;;;;;;;;;;;17.50;99.90;;;;;;5072527;28;19908;-82
2021/07/06 04:45:07;;;;;;;;;;;17.50;99.90;;;;;;5070431;28;19908;-82
2021/07/06 04:47:33;;;;;;;;;;;17.80;99.90;;;;;;5069619;28;19913;-81
2021/07/06 04:49:58;;;;;;;;;;;18.00;99.90;;;;;;5070668;28;19958;-83
2021/07/06 04:52:24;;;;;;;;;;;18.30;99.90;;;;;;5072355;28;20357;-83
2021/07/06 04:54:49;;;;;;;;;;;18.70;99.90;;;;;;5071931;28;19995;-82
2021/07/06 04:57:15;;;;;;;;;;;18.90;99.90;;;;;;5072332;28;20004;-83
2021/07/06 04:59:40;;;;;;;;;;;19.10;99.90;;;;;;5073905;28;19909;-83
2021/07/06 05:02:06;;;;;;;;;;;19.10;99.90;;;;;;5073464;28;19983;-83
2021/07/06 05:04:33;;;;;;;;;;;19.20;99.90;;;;;;5072751;28;19917;-83
2021/07/06 05:06:58;;;;;;;;;;;19.10;99.90;;;;;;5074236;28;20383;-83
2021/07/06 05:09:24;;;;;;;;;;;19.00;99.90;;;;;;5074219;28;19909;-84
2021/07/06 05:11:50;;;;;;;;;;;19.00;99.90;;;;;;5073497;28;19915;-83
2021/07/06 05:14:15;;;;;;;;;;;19.00;99.90;;;;;;5073308;28;20321;-83
2021/07/06 05:16:41;;;;;;;;;;;19.10;99.90;;;;;;5073797;28;19908;-83
2021/07/06 05:19:06;;;;;;;;;;;19.30;99.90;;;;;;5075698;28;19915;-83
2021/07/06 05:21:31;;;;;;;;;;;19.60;99.90;;;;;;5074704;28;19936;-84
2021/07/06 05:23:57;;;;;;;;;;;19.90;99.90;;;;;;5072667;28;20002;-84
2021/07/06 05:26:22;;;;;;;;;;;20.00;99.90;;;;;;5072544;28;19927;-83
2021/07/06 05:28:48;;;;;;;;;;;20.00;99.90;;;;;;5074629;28;19909;-84
2021/07/06 05:31:14;;;;;;;;;;;20.00;99.90;;;;;;5074021;28;20287;-84
2021/07/06 05:33:40;;;;;;;;;;;20.10;99.90;;;;;;5073872;28;20367;-84
2021/07/06 05:36:06;;;;;;;;;;;20.40;99.90;;;;;;5079171;28;19920;-83
2021/07/06 05:38:31;;;;;;;;;;;20.60;99.90;;;;;;5081744;28;19908;-84
2021/07/06 05:40:57;;;;;;;;;;;20.70;99.90;;;;;;5076276;28;19908;-80
2021/07/06 05:43:23;;;;;;;;;;;20.70;99.90;;;;;;5076416;28;19914;-79
2021/07/06 05:45:53;;;;;;;;;;;20.60;99.90;;;;;;5079336;28;20014;-79
2021/07/06 05:48:18;;;;;;;;;;;20.50;99.90;;;;;;5081672;28;19946;-78
2021/07/06 05:50:44;;;;;;;;;;;20.20;99.90;;;;;;5085457;28;20390;-78
2021/07/06 05:53:11;;;;;;;;;;;20.10;99.90;;;;;;5074573;28;20360;-79
2021/07/06 05:55:39;;;;;;;;;;;20.10;99.90;;;;;;5078971;28;19916;-79
2021/07/06 05:58:05;;;;;;;;;;;20.10;99.90;;;;;;5083390;28;19908;-80
2021/07/06 06:00:31;;;;;;;;;;;20.40;99.90;;;;;;5092733;28;20363;-78
2021/07/06 06:02:56;;;;;;;;;;;20.40;99.90;;;;;;5080949;28;19957;-79
2021/07/06 06:05:22;;;;;;;;;;;20.50;99.90;;;;;;5075754;28;19905;-79
2021/07/06 06:07:49;;;;;;;;;;;20.70;99.90;;;;;;5076216;28;19912;-81
2021/07/06 06:10:14;;;;;;;;;;;21.10;99.90;;;;;;5074263;28;20416;-78
2021/07/06 06:12:40;;;;;;;;;;;21.30;99.90;;;;;;5074241;28;19904;-81
2021/07/06 06:15:06;;;;;;;;;;;21.50;99.90;;;;;;5075937;28;19910;-80
2021/07/06 06:17:32;;;;;;;2.08;1.00;;;21.70;99.90;;;;;;5074964;28;19926;-81
2021/07/06 06:19:58;;;;;;;2.15;1.30;;;22.10;99.90;;;;;;5076831;28;20107;-79
2021/07/06 06:22:24;;;;;;;4.13;1.15;;;22.20;99.90;;;;;;5074542;28;20025;-81
2021/07/06 06:24:50;;;;;;;3.55;0.82;;;22.60;99.90;;;;;;5074743;28;20060;-80
2021/07/06 06:27:16;;;;;;;2.03;0.73;;;22.70;99.90;;;;;;5076597;28;20060;-84
2021/07/06 06:29:42;;;;;;;;;;;22.80;99.90;;;;;;5077349;28;20417;-84
2021/07/06 06:32:07;;;;;;;;;;;22.90;99.90;;;;;;5076268;28;19991;-84
2021/07/06 06:34:33;;;;;;;;;;;22.90;99.90;;;;;;5075611;28;19904;-84
2021/07/06 06:36:58;;;;;;;;;;;22.80;99.90;;;;;;5075861;28;19991;-84
2021/07/06 06:39:24;;;;;;;;;;;22.30;99.90;;;;;;5076058;28;20252;-84
2021/07/06 06:41:50;;;;;;;;;;;22.00;99.90;;;;;;5077079;28;19904;-84
2021/07/06 06:44:15;;;;;;;;;;;21.60;99.90;;;;;;5074231;28;20350;-84
2021/07/06 06:46:41;;;;;;;;;;;21.40;99.90;;;;;;5075681;28;19908;-84
2021/07/06 06:49:06;;;;;;;;;;;21.40;99.90;;;;;;5075216;28;19913;-84
2021/07/06 06:51:32;;;;;;;;;;;21.70;99.90;;;;;;5074301;28;20360;-84
2021/07/06 06:53:58;;;;;;;2.70;1.40;;;21.80;99.90;;;;;;5073322;28;24092;-84
2021/07/06 06:56:23;;;;;;;1.17;0.67;;;22.00;99.90;;;;;;5075475;28;20368;-84
2021/07/06 06:58:49;;;;;;;2.97;1.00;;;22.30;99.90;;;;;;5075251;28;20030;-84
2021/07/06 07:01:15;;;;;;;1.88;1.08;;;22.60;99.90;;;;;;5074928;28;20025;-84
2021/07/06 07:03:40;;;;;;;1.67;0.93;;;22.80;99.90;;;;;;5074604;28;20043;-84
2021/07/06 07:06:06;;;;;;;1.43;1.00;;;22.90;99.90;;;;;;5074885;28;20531;-84
2021/07/06 07:08:32;;;;;;;1.27;1.10;;;22.80;99.90;;;;;;5077167;28;20031;-84
2021/07/06 07:10:58;;;;;;;1.00;0.90;;;23.00;99.90;;;;;;5074939;28;20024;-84
2021/07/06 07:13:24;;;;;;;2.73;0.90;;;23.10;99.90;;;;;;5075823;28;20017;-84
2021/07/06 07:15:50;;;;;;;2.95;1.08;;;23.10;99.90;;;;;;5084230;28;20380;-84
2021/07/06 07:18:16;;;;;;;0.95;0.90;;;23.10;99.90;;;;;;5077012;28;20108;-85
2021/07/06 07:20:41;;;;;;;3.20;1.00;;;23.00;99.90;;;;;;5077167;28;20031;-84
2021/07/06 07:23:07;;;;;;;1.95;1.20;;;23.00;99.90;;;;;;5077037;28;20036;-84
2021/07/06 07:25:33;;;;;;;4.45;1.33;;;22.70;99.90;;;;;;5077494;28;20096;-84
2021/07/06 07:27:59;;;;;;;1.83;0.90;;;22.50;99.90;;;;;;5074628;28;20024;-84
2021/07/06 07:30:25;;;;;;;1.27;0.87;;;22.30;99.90;;;;;;5073324;28;20067;-84
2021/07/06 07:32:51;;;;;;;1.20;0.90;;;22.30;99.90;;;;;;5075032;28;20086;-85
2021/07/06 07:35:17;;;;;;;4.85;1.25;;;22.10;99.90;;;;;;5074811;28;20332;-85
2021/07/06 07:37:44;;;;;;;;;;;22.00;99.90;;;;;;5073774;28;20282;-85
2021/07/06 07:40:10;;;;;;;;;;;21.80;99.90;;;;;;5074292;28;19958;-85
2021/07/06 07:42:35;;;;;;;;;;;21.70;99.90;;;;;;5073262;28;19944;-86
2021/07/06 07:45:01;;;;;;;;;;;21.50;99.90;;;;;;5073389;28;19911;-85
2021/07/06 07:47:27;;;;;;;;;;;21.40;99.90;;;;;;5073767;28;19928;-85
2021/07/06 07:49:52;;;;;;;;;;;21.30;99.90;;;;;;5074737;28;19989;-85
2021/07/06 07:52:18;;;;;;;;;;;21.20;99.90;;;;;;5075140;28;20071;-85
2021/07/06 07:54:43;;;;;;;;;;;21.10;99.90;;;;;;5074286;28;19908;-85
2021/07/06 07:57:10;;;;;;;;;;;21.20;99.90;;;;;;5081881;28;19958;-85
2021/07/06 07:59:36;;;;;;;;;;;21.20;99.90;;;;;;5073983;28;20349;-86
2021/07/06 08:02:01;;;;;;;;;;;21.20;99.90;;;;;;5079051;28;19908;-86
2021/07/06 08:04:27;;;;;;;;;;;21.10;99.90;;;;;;5095494;28;19915;-85
2021/07/06 08:06:52;;;;;;;;;;;21.00;99.90;;;;;;5094697;28;19915;-84
2021/07/06 08:09:18;;;;;;;;;;;20.80;99.90;;;;;;5094157;28;19904;-85
2021/07/06 08:11:43;;;;;;;;;;;20.70;99.90;;;;;;5096776;28;19908;-85
2021/07/06 08:14:09;;;;;;;;;;;20.70;99.90;;;;;;5096307;28;20274;-85
2021/07/06 08:16:34;;;;;;;;;;;20.60;99.90;;;;;;5096524;28;19908;-86
2021/07/06 08:19:00;;;;;;;;;;;20.50;99.90;;;;;;5096289;28;19904;-86
2021/07/06 08:21:25;;;;;;;;;;;20.40;99.90;;;;;;5096721;28;19943;-86
2021/07/06 08:23:51;;;;;;;;;;;20.40;99.90;;;;;;5097655;28;19904;-86
2021/07/06 08:26:17;;;;;;;;;;;20.30;99.90;;;;;;5096258;28;20395;-86
2021/07/06 08:28:45;;;;;;;;;;;20.30;99.90;;;;;;5099567;28;20006;-85
2021/07/06 08:31:10;;;;;;;;;;;20.30;99.90;;;;;;5097227;28;19904;-86
2021/07/06 08:33:36;;;;;;;;;;;20.20;99.90;;;;;;5097230;28;19904;-85
2021/07/06 08:36:01;;;;;;;;;;;20.20;99.90;;;;;;5094061;28;19911;-84
2021/07/06 08:38:26;;;;;;;;;;;20.00;99.90;;;;;;5091491;28;19911;-84
2021/07/06 08:40:52;;;;;;;;;;;19.90;99.90;;;;;;5090800;28;20018;-84
2021/07/06 08:43:18;;;;;;;;;;;19.80;99.90;;;;;;5090961;28;19912;-84
2021/07/06 08:45:44;;;;;;;;;;;19.70;99.90;;;;;;5090663;28;19904;-84
2021/07/06 08:48:13;;;;;;;;;;;19.60;99.90;;;;;;5090510;28;19914;-84
2021/07/06 08:50:39;;;;;;;;;;;19.50;99.90;;;;;;5085025;28;19961;-84
2021/07/06 08:53:04;;;;;;;;;;;19.40;99.90;;;;;;5069753;28;20015;-83
2021/07/06 08:55:30;;;;;;;;;;;19.30;99.90;;;;;;5070273;28;20007;-83
2021/07/06 08:57:55;;;;;;;;;;;19.20;99.90;;;;;;5070473;28;19915;-84
2021/07/06 09:00:22;;;;;;;;;;;19.20;99.90;;;;;;5070729;28;19904;-84
2021/07/06 09:02:58;;;;;;;;;;;19.10;99.90;;;;;;5070186;28;19912;-85
2021/07/06 09:05:24;;;;;;;;;;;19.00;99.90;;;;;;5071870;28;20374;-84
2021/07/06 09:07:50;;;;;;;;;;;19.00;99.90;;;;;;5070899;28;19940;-85
2021/07/06 09:10:23;;;;;;;;;;;19.00;99.90;;;;;;5072540;28;19904;-85
2021/07/06 09:12:49;;;;;;;;;;;18.90;99.90;;;;;;5070915;28;20363;-85
2021/07/06 09:15:18;;;;;;;;;;;19.00;99.90;;;;;;5071973;28;19912;-84
2021/07/06 09:17:43;;;;;;;;;;;19.00;99.90;;;;;;5085591;28;19939;-85
2021/07/06 09:20:09;;;;;;;;;;;19.10;99.90;;;;;;5089653;28;19957;-85
2021/07/06 09:22:35;;;;;;;;;;;19.10;99.90;;;;;;5097690;28;19957;-84
2021/07/06 09:25:03;;;;;;;;;;;19.20;99.90;;;;;;5097391;28;20321;-85
2021/07/06 09:27:32;;;;;;;;;;;19.30;99.90;;;;;;5097383;28;19914;-84
2021/07/06 09:30:07;;;;;;;;;;;19.30;99.90;;;;;;5097516;28;19904;-83
2021/07/06 09:32:33;;;;;;;;;;;19.30;99.90;;;;;;5097416;28;19911;-84
2021/07/06 09:35:09;;;;;;;;;;;19.30;99.90;;;;;;5097560;28;19908;-84
2021/07/06 09:37:44;;;;;;;;;;;19.30;99.90;;;;;;5097698;28;19908;-84
2021/07/06 09:40:30;;;;;;;;;;;19.40;99.90;;;;;;5099471;28;20283;-84
2021/07/06 09:43:14;;;;;;;;;;;19.40;99.90;;;;;;5097406;28;19935;-84
2021/07/06 09:45:40;;;;;;;;;;;19.50;99.90;;;;;;5097416;28;19908;-84
2021/07/06 09:48:06;;;;;;;;;;;19.40;99.90;;;;;;5097949;28;19908;-83
2021/07/06 09:50:32;;;;;;;;;;;19.50;99.90;;;;;;5093371;28;19911;-84
2021/07/06 09:52:57;;;;;;;;;;;19.60;99.90;;;;;;5078228;28;19905;-84
2021/07/06 09:55:30;;;;;;;;;;;19.60;99.90;;;;;;5078063;28;20252;-84
2021/07/06 09:57:56;;;;;;;;;;;19.70;99.90;;;;;;5078313;28;19904;-84
2021/07/06 10:00:21;;;;;;;;;;;19.90;99.90;;;;;;5078312;28;19912;-84
2021/07/06 10:02:47;;;;;;;0.73;0.73;;;19.90;99.90;;;;;;5077257;28;19916;-84
2021/07/06 10:05:18;;;;;;;;;;;19.90;99.90;;;;;;5077833;28;19955;-84
2021/07/06 10:07:44;;;;;;;;;;;19.90;99.90;;;;;;5078494;28;20363;-84
2021/07/06 10:10:12;;;;;;;;;;;19.90;99.90;;;;;;5076687;28;19904;-84
2021/07/06 10:12:38;;;;;;;;;;;20.00;99.90;;;;;;5076881;28;25114;-82
2021/07/06 10:15:04;;;;;;;;;;;19.90;99.90;;;;;;5077643;28;19909;-84
2021/07/06 10:17:29;;;;;;;;;;;19.90;99.90;;;;;;5076179;28;19908;-84
2021/07/06 10:19:55;;;;;;;;;;;19.90;99.90;;;;;;5076792;28;20282;-83
2021/07/06 10:22:20;;;;;;;;;;;19.90;99.90;;;;;;5076863;28;19966;-83
2021/07/06 10:24:46;;;;;;;;;;;19.80;99.90;;;;;;5076381;28;19904;-84
2021/07/06 10:27:23;;;;;;;;;;;19.70;99.90;;;;;;5076468;28;19954;-83
2021/07/06 10:30:05;;;;;;;;;;;19.70;99.90;;;;;;5074894;28;19939;-83
2021/07/06 10:32:38;;;;;;;;;;;19.80;99.90;;;;;;5073711;28;19904;-83
2021/07/06 10:35:04;;;;;;;;;;;19.80;99.90;;;;;;5074189;28;19904;-84
2021/07/06 10:37:30;;;;;;;;;;;19.80;99.90;;;;;;5078494;28;20397;-84
2021/07/06 10:40:12;;;;;;;;;;;19.80;99.90;;;;;;5084686;28;19998;-84
2021/07/06 10:42:39;;;;;;;;;;;19.70;99.90;;;;;;5084446;28;19909;-84
2021/07/06 10:45:14;;;;;;;;;;;19.90;99.90;;;;;;5084960;28;19977;-83
2021/07/06 10:47:41;;;;;;;;;;;20.10;99.90;;;;;;5087575;28;20127;-83
2021/07/06 10:50:46;;;;;;;;;;;20.40;99.90;;;;;;5086205;28;20395;-83
2021/07/06 10:53:13;;;;;;;;;;;20.60;99.90;;;;;;5086264;28;20439;-84
2021/07/06 10:55:39;;;;;;;;;;;20.50;99.90;;;;;;5084863;28;19991;-83
2021/07/06 10:58:04;;;;;;;;;;;20.40;99.90;;;;;;5083958;28;19946;-82
2021/07/06 11:00:40;;;;;;;;;;;20.20;99.90;;;;;;5084440;28;20389;-83
2021/07/06 11:03:17;;;;;;;;;;;20.10;99.90;;;;;;5087396;28;19939;-84
2021/07/06 11:05:42;;;;;;;;;;;20.10;99.90;;;;;;5085891;28;19912;-85
2021/07/06 11:08:08;;;;;;;;;;;20.00;99.90;;;;;;5085325;28;20019;-82
2021/07/06 11:10:37;;;;;;;;;;;19.90;99.90;;;;;;5083290;28;19912;-82
2021/07/06 11:13:13;;;;;;;;;;;19.80;99.90;;;;;;5083033;28;19904;-85
2021/07/06 11:15:38;;;;;;;;;;;19.70;99.90;;;;;;5085215;28;19982;-83
2021/07/06 11:18:05;;;;;;;;;;;19.60;99.90;;;;;;5085802;28;20390;-83
2021/07/06 11:20:36;;;;;;;;;;;19.50;99.90;;;;;;5085845;28;19911;-84
2021/07/06 11:23:02;;;;;;;;;;;19.60;99.90;;;;;;5085542;28;19904;-82
2021/07/06 11:25:28;;;;;;;;;;;19.60;99.90;;;;;;5084276;28;20351;-83
2021/07/06 11:27:56;;;;;;;;;;;19.70;99.90;;;;;;5082542;28;19916;-82
2021/07/06 11:30:22;;;;;;;;;;;19.70;99.90;;;;;;5084141;28;19904;-84
2021/07/06 11:33:06;;;;;;;;;;;19.70;99.90;;;;;;5086162;28;19908;-82
2021/07/06 11:35:33;;;;;;;;;;;19.70;99.90;;;;;;5093178;28;19995;-82
2021/07/06 11:38:00;;;;;;;;;;;19.60;99.90;;;;;;5094541;28;19904;-83
2021/07/06 11:40:25;;;;;;;;;;;19.50;99.90;;;;;;5093596;28;20370;-84
2021/07/06 11:42:52;;;;;;;;;;;19.50;99.90;;;;;;5094096;28;19994;-83
2021/07/06 11:45:19;;;;;;;;;;;19.40;99.90;;;;;;5093649;28;19904;-82
2021/07/06 11:47:45;;;;;;;;;;;19.40;99.90;;;;;;5094508;28;19912;-83
2021/07/06 11:50:24;;;;;;;;;;;19.30;99.90;;;;;;5093205;28;20270;-84
2021/07/06 11:52:49;;;;;;;;;;;19.30;99.90;;;;;;5074238;28;19951;-84
2021/07/06 11:55:21;;;;;;;;;;;19.30;99.90;;;;;;5084116;28;19912;-82
2021/07/06 11:57:50;;;;;;;;;;;19.30;99.90;;;;;;5095750;28;19957;-82
2021/07/06 12:00:17;;;;;;;;;;;19.20;99.90;;;;;;5093795;28;19982;-82
2021/07/06 12:02:43;;;;;;;;;;;19.10;99.90;;;;;;5092656;28;19903;-84
2021/07/06 12:05:18;;;;;;;;;;;19.10;99.90;;;;;;5092598;28;20230;-81
2021/07/06 12:07:44;;;;;;;;;;;19.20;99.90;;;;;;5092812;28;19912;-83
2021/07/06 12:10:10;;;;;;;;;;;19.20;99.90;;;;;;5094975;28;20211;-81
2021/07/06 12:12:39;;;;;;;;;;;19.20;99.90;;;;;;5085559;28;19908;-82
2021/07/06 12:15:05;;;;;;;;;;;19.20;99.90;;;;;;5082719;28;19918;-84
2021/07/06 12:17:31;;;;;;;;;;;19.20;99.90;;;;;;5081555;28;20264;-81
2021/07/06 12:19:57;;;;;;;;;;;19.20;99.90;;;;;;5081692;28;19911;-82
2021/07/06 12:22:23;;;;;;;;;;;19.20;99.90;;;;;;5083715;28;19904;-82
2021/07/06 12:24:49;;;;;;;;;;;19.20;99.90;;;;;;5080388;28;19957;-83
2021/07/06 12:27:17;;;;;;;;;;;19.30;99.90;;;;;;5075860;28;19923;-83
2021/07/06 12:29:43;;;;;;;;;;;19.20;99.90;;;;;;5080715;28;19912;-85
2021/07/06 12:32:12;;;;;;;;;;;19.10;99.90;;;;;;5094422;28;19904;-83
2021/07/06 12:34:46;;;;;;;;;;;19.00;99.90;;;;;;5092742;28;19904;-83
2021/07/06 12:37:12;;;;;;;;;;;19.10;99.90;;;;;;5092636;28;20309;-82
2021/07/06 12:39:39;;;;;;;;;;;19.10;99.90;;;;;;5093872;28;20386;-82
2021/07/06 12:42:06;;;;;;;;;;;19.10;99.90;;;;;;5092069;28;19908;-84
2021/07/06 12:44:31;;;;;;;;;;;19.00;99.90;;;;;;5092458;28;19904;-82
2021/07/06 12:50:01;;;;;;;;;;;19.00;99.90;;;;;;5091738;28;19911;-82
2021/07/06 12:52:34;;;;;;;;;;;19.00;99.90;;;;;;5072210;28;19905;-82
2021/07/06 12:55:14;;;;;;;;;;;19.00;99.90;;;;;;5072263;28;19905;-83
2021/07/06 12:57:41;;;;;;;;;;;19.10;99.90;;;;;;5071301;28;19995;-82
2021/07/06 13:00:06;;;;;;;;;;;19.00;99.90;;;;;;5071432;28;19908;-82
2021/07/06 13:02:32;;;;;;;;;;;19.00;99.90;;;;;;5071373;28;19905;-82
2021/07/06 13:04:58;;;;;;;;;;;19.10;99.90;;;;;;5070959;28;19915;-83
2021/07/06 13:07:24;;;;;;;;;;;19.10;99.90;;;;;;5072968;28;19908;-83
2021/07/06 13:15:58;;;;;;;;;;;19.10;99.90;;;;;;5076959;28;20021;-83
2021/07/06 13:18:34;;;;;;;;;;;19.10;99.90;;;;;;5071311;28;19904;-83
2021/07/06 13:21:07;;;;;;;;;;;19.10;99.90;;;;;;5070743;28;20283;-83
2021/07/06 13:23:33;;;;;;;;;;;19.00;99.90;;;;;;5072377;28;19905;-84
2021/07/06 13:26:02;;;;;;;;;;;19.00;99.90;;;;;;5073710;28;19904;-83
2021/07/06 13:28:28;;;;;;;;;;;19.00;99.90;;;;;;5071562;28;19909;-84
2021/07/06 13:30:55;;;;;;;;;;;19.00;99.90;;;;;;5071676;28;19912;-83
2021/07/06 13:33:20;;;;;;;;;;;18.90;99.90;;;;;;5072667;28;19911;-84
2021/07/06 13:35:47;;;;;;;;;;;19.00;99.90;;;;;;5071408;28;19908;-83
2021/07/06 13:38:13;;;;;;;;;;;18.90;99.90;;;;;;5072059;28;19905;-85
2021/07/06 13:40:38;;;;;;;;;;;18.90;99.90;;;;;;5071717;28;19911;-84
2021/07/06 13:43:04;;;;;;;;;;;19.00;99.90;;;;;;5071803;28;20133;-84
2021/07/06 13:45:30;;;;;;;;;;;19.00;99.90;;;;;;5073924;28;20260;-83
2021/07/06 13:47:55;;;;;;;;;;;19.00;99.90;;;;;;5073693;28;19908;-82
2021/07/06 13:50:23;;;;;;;;;;;19.10;99.90;;;;;;5079743;28;19913;-86
2021/07/06 13:52:48;;;;;;;;;;;19.00;99.90;;;;;;5074786;28;19983;-87
2021/07/06 13:58:09;;;;;;;1.95;1.40;;;19.10;99.90;;;;;;5054908;28;20036;-85
2021/07/06 14:00:35;;;;;;;;;;;19.10;99.90;;;;;;5075613;28;19942;-87
2021/07/06 14:03:13;;;;;;;;;;;19.20;99.90;;;;;;5073382;28;19909;-87
2021/07/06 14:05:41;;;;;;;;;;;19.30;99.90;;;;;;5075327;28;19963;-87
2021/07/06 14:08:07;;;;;;;;;;;19.40;99.90;;;;;;5075272;28;19915;-87
2021/07/06 14:10:32;;;;;;;;;;;19.40;99.90;;;;;;5080902;28;19908;-87
2021/07/06 14:12:58;;;;;;;;;;;19.50;99.90;;;;;;5086451;28;19908;-88
2021/07/06 14:15:24;;;;;;;;;;;19.50;99.90;;;;;;5081526;28;19908;-87
2021/07/06 14:17:50;;;;;;;;;;;19.50;99.90;;;;;;5078946;28;19963;-88